Aeroporto :
LOGIN :

Iscrizione | Disclaimer

   EN    FR    IT 

 










Sommario :    VFR   VFR Marginale   IFR   IFR Intensivo   IFR Molto Intensivo
Visibilità : 
Base nubi : 
>= 8 km
>= 3000ft
5 / 8 km
1000 / 3000 ft
1500m / 5 km
500 / 1000 ft
800 / 1500m
200 / 500 ft
< 800m
< 200 ft
Simboli :   Temporali  Nebbia  Neve Forte  Precipitazioni Forti  Vento > 20 kt
SIGMETs :   Varie  Temporali  Ghiacco  Turbolenza  Onda orograficha  Ceneri Vulcaniche






- Altitudine del aeroporto : 247 ft
- Codice IATA : BLL


EKBI - Billund

ULTIMO METAR :
  • 171720Z AUTO 08003KT 4700 BR OVC140/// 04/03 Q1014

METARs OBSOLETI :
  • 171650Z AUTO 08002KT 4700 BR OVC150/// 04/03 Q1014
  • 171620Z AUTO 08004KT 4300 BR OVC150/// 03/03 Q1014
  • 171550Z AUTO 05002KT 3200 BR BKN150/// 02/02 Q1014
  • 171520Z AUTO 13001KT 4500 BR FEW008/// SCT150/// BKN240/// 04/03 Q1014
  • 171450Z AUTO 17003KT 7000 BKN007/// 05/04 Q1014

TAF TAF EKBI
Valido dal 17 a 18 ore il 18 a 18 ore UTC


171706Z 1718/1818 07008KT 9999 BKN020
TEMPO 1718/1724 4000 BR
BECMG 1804/1807 3000 BR OVC008
BECMG 1807/1809 0800 FG -RADZ BKN002
TEMPO 1809/1812 0100 VV001
BECMG 1812/1814 3000 -RADZ BR BKN008
TEMPO 1814/1818 1200 BCFG BKN002



MetMap, La meteo Aeronautica in un colpo d'occhio ! - Copyright ORBIFLY Dicembre 2007 - Disclaimer

ORBIFLY MET'MAP TEAM :

Programmazione e sviluppo : Alexandra Zaïnal
Concezione e sviluppo : Baudouin d'Aumeries
Co-Programmazione e sviluppo : Marc-Olivier Méhu
Supporto tecnico e logistico : Manuel Goepfert
Aiuto per la traduzione : Arnaldo La Scala

Contatto : metmap@orbifly.com




FONTI E CREDITI :

   NOAA